sensor_id;sensor_type;location;lat;lon;timestamp;pressure;altitude;pressure_sealevel;temperature
14023;BMP180;7086;48.116;11.580;2024-01-15T00:02:22;93937.00;;;5.00
14023;BMP180;7086;48.116;11.580;2024-01-15T00:04:49;93930.00;;;5.00
14023;BMP180;7086;48.116;11.580;2024-01-15T00:07:17;93934.00;;;5.10
14023;BMP180;7086;48.116;11.580;2024-01-15T00:09:44;93919.00;;;5.10
14023;BMP180;7086;48.116;11.580;2024-01-15T00:12:12;93919.00;;;5.10
14023;BMP180;7086;48.116;11.580;2024-01-15T00:14:40;93942.00;;;5.10
14023;BMP180;7086;48.116;11.580;2024-01-15T00:17:08;93909.00;;;5.10
14023;BMP180;7086;48.116;11.580;2024-01-15T00:19:35;93945.00;;;5.20
14023;BMP180;7086;48.116;11.580;2024-01-15T00:22:03;93947.00;;;5.20
14023;BMP180;7086;48.116;11.580;2024-01-15T00:24:31;93926.00;;;5.20
14023;BMP180;7086;48.116;11.580;2024-01-15T00:26:58;93891.00;;;5.30
14023;BMP180;7086;48.116;11.580;2024-01-15T00:29:26;93882.00;;;5.30
14023;BMP180;7086;48.116;11.580;2024-01-15T00:31:55;93947.00;;;5.30
14023;BMP180;7086;48.116;11.580;2024-01-15T00:34:22;93904.00;;;5.30
14023;BMP180;7086;48.116;11.580;2024-01-15T00:36:49;93948.00;;;5.40
14023;BMP180;7086;48.116;11.580;2024-01-15T00:39:17;93953.00;;;5.30
14023;BMP180;7086;48.116;11.580;2024-01-15T00:41:44;93955.00;;;5.40
14023;BMP180;7086;48.116;11.580;2024-01-15T00:44:12;93901.00;;;5.40
14023;BMP180;7086;48.116;11.580;2024-01-15T00:46:44;93911.00;;;5.40
14023;BMP180;7086;48.116;11.580;2024-01-15T00:49:13;93968.00;;;5.20
14023;BMP180;7086;48.116;11.580;2024-01-15T00:51:41;93982.00;;;5.40
14023;BMP180;7086;48.116;11.580;2024-01-15T00:54:09;93973.00;;;5.40
14023;BMP180;7086;48.116;11.580;2024-01-15T00:56:37;93947.00;;;5.40
14023;BMP180;7086;48.116;11.580;2024-01-15T00:59:04;93976.00;;;5.50
14023;BMP180;7086;48.116;11.580;2024-01-15T01:01:32;93940.00;;;5.50
14023;BMP180;7086;48.116;11.580;2024-01-15T01:03:59;93975.00;;;5.50
14023;BMP180;7086;48.116;11.580;2024-01-15T01:06:28;93945.00;;;5.50
14023;BMP180;7086;48.116;11.580;2024-01-15T01:08:56;93985.00;;;5.50
14023;BMP180;7086;48.116;11.580;2024-01-15T01:11:23;93976.00;;;5.50
14023;BMP180;7086;48.116;11.580;2024-01-15T01:13:51;93987.00;;;5.50
14023;BMP180;7086;48.116;11.580;2024-01-15T01:16:18;93970.00;;;5.50
14023;BMP180;7086;48.116;11.580;2024-01-15T01:18:46;93960.00;;;5.50
14023;BMP180;7086;48.116;11.580;2024-01-15T01:21:14;93993.00;;;5.40
14023;BMP180;7086;48.116;11.580;2024-01-15T01:23:42;93997.00;;;4.80
14023;BMP180;7086;48.116;11.580;2024-01-15T01:26:10;93988.00;;;5.30
14023;BMP180;7086;48.116;11.580;2024-01-15T01:28:37;94000.00;;;5.30
14023;BMP180;7086;48.116;11.580;2024-01-15T01:31:05;93996.00;;;5.20
14023;BMP180;7086;48.116;11.580;2024-01-15T01:33:34;93894.00;;;5.20
14023;BMP180;7086;48.116;11.580;2024-01-15T01:36:07;93993.00;;;5.10
14023;BMP180;7086;48.116;11.580;2024-01-15T01:38:35;94003.00;;;5.10
14023;BMP180;7086;48.116;11.580;2024-01-15T01:41:04;94006.00;;;5.00
14023;BMP180;7086;48.116;11.580;2024-01-15T01:43:31;93997.00;;;4.90
14023;BMP180;7086;48.116;11.580;2024-01-15T01:46:00;94007.00;;;4.80
14023;BMP180;7086;48.116;11.580;2024-01-15T01:48:30;93973.00;;;4.80
14023;BMP180;7086;48.116;11.580;2024-01-15T01:51:02;94003.00;;;4.70
14023;BMP180;7086;48.116;11.580;2024-01-15T01:53:33;93952.00;;;4.50
14023;BMP180;7086;48.116;11.580;2024-01-15T01:56:05;93905.00;;;4.60
14023;BMP180;7086;48.116;11.580;2024-01-15T01:58:33;93979.00;;;4.50
14023;BMP180;7086;48.116;11.580;2024-01-15T02:01:01;94020.00;;;4.50
14023;BMP180;7086;48.116;11.580;2024-01-15T02:03:30;94013.00;;;4.40
14023;BMP180;7086;48.116;11.580;2024-01-15T02:05:58;94003.00;;;4.40
14023;BMP180;7086;48.116;11.580;2024-01-15T02:08:27;93951.00;;;4.40
14023;BMP180;7086;48.116;11.580;2024-01-15T02:10:54;93988.00;;;4.30
14023;BMP180;7086;48.116;11.580;2024-01-15T02:13:23;94009.00;;;4.30
14023;BMP180;7086;48.116;11.580;2024-01-15T02:15:51;94004.00;;;4.30
14023;BMP180;7086;48.116;11.580;2024-01-15T02:18:18;94019.00;;;4.20
14023;BMP180;7086;48.116;11.580;2024-01-15T02:20:46;94012.00;;;4.20
14023;BMP180;7086;48.116;11.580;2024-01-15T02:23:16;93898.00;;;4.20
14023;BMP180;7086;48.116;11.580;2024-01-15T02:25:45;93975.00;;;4.20
14023;BMP180;7086;48.116;11.580;2024-01-15T02:28:15;93991.00;;;4.20
14023;BMP180;7086;48.116;11.580;2024-01-15T02:30:44;93881.00;;;4.10
14023;BMP180;7086;48.116;11.580;2024-01-15T02:33:12;93985.00;;;4.10
14023;BMP180;7086;48.116;11.580;2024-01-15T02:35:40;94029.00;;;4.10
14023;BMP180;7086;48.116;11.580;2024-01-15T02:38:08;94029.00;;;4.10
14023;BMP180;7086;48.116;11.580;2024-01-15T02:40:38;94036.00;;;4.10
14023;BMP180;7086;48.116;11.580;2024-01-15T02:43:06;94047.00;;;4.20
14023;BMP180;7086;48.116;11.580;2024-01-15T02:45:33;94039.00;;;4.20
14023;BMP180;7086;48.116;11.580;2024-01-15T02:48:01;94029.00;;;4.10
14023;BMP180;7086;48.116;11.580;2024-01-15T02:50:28;93999.00;;;4.20
14023;BMP180;7086;48.116;11.580;2024-01-15T02:52:56;93978.00;;;4.20
14023;BMP180;7086;48.116;11.580;2024-01-15T02:55:23;94050.00;;;4.20
14023;BMP180;7086;48.116;11.580;2024-01-15T02:57:52;93989.00;;;4.20
14023;BMP180;7086;48.116;11.580;2024-01-15T03:00:19;94042.00;;;4.20
14023;BMP180;7086;48.116;11.580;2024-01-15T03:02:50;94025.00;;;4.20
14023;BMP180;7086;48.116;11.580;2024-01-15T03:05:18;94002.00;;;4.20
14023;BMP180;7086;48.116;11.580;2024-01-15T03:07:46;94034.00;;;4.30
14023;BMP180;7086;48.116;11.580;2024-01-15T03:10:14;94035.00;;;4.30
14023;BMP180;7086;48.116;11.580;2024-01-15T03:12:41;94025.00;;;4.30
14023;BMP180;7086;48.116;11.580;2024-01-15T03:15:10;94034.00;;;4.20
14023;BMP180;7086;48.116;11.580;2024-01-15T03:17:38;94030.00;;;4.30
14023;BMP180;7086;48.116;11.580;2024-01-15T03:20:06;93994.00;;;4.20
14023;BMP180;7086;48.116;11.580;2024-01-15T03:22:34;94024.00;;;4.20
14023;BMP180;7086;48.116;11.580;2024-01-15T03:25:02;94020.00;;;4.20
14023;BMP180;7086;48.116;11.580;2024-01-15T03:27:30;94008.00;;;4.20
14023;BMP180;7086;48.116;11.580;2024-01-15T03:29:57;94000.00;;;4.30
14023;BMP180;7086;48.116;11.580;2024-01-15T03:32:26;93994.00;;;4.30
14023;BMP180;7086;48.116;11.580;2024-01-15T03:34:54;93968.00;;;4.30
14023;BMP180;7086;48.116;11.580;2024-01-15T03:37:21;94009.00;;;4.30
14023;BMP180;7086;48.116;11.580;2024-01-15T03:39:48;93920.00;;;4.30
14023;BMP180;7086;48.116;11.580;2024-01-15T03:42:16;93881.00;;;4.30
14023;BMP180;7086;48.116;11.580;2024-01-15T03:44:44;94023.00;;;4.30
14023;BMP180;7086;48.116;11.580;2024-01-15T03:47:11;94022.00;;;4.40
14023;BMP180;7086;48.116;11.580;2024-01-15T03:49:40;93941.00;;;4.40
14023;BMP180;7086;48.116;11.580;2024-01-15T03:52:08;94034.00;;;4.30
14023;BMP180;7086;48.116;11.580;2024-01-15T03:54:35;94022.00;;;4.30
14023;BMP180;7086;48.116;11.580;2024-01-15T03:57:04;94022.00;;;4.40
14023;BMP180;7086;48.116;11.580;2024-01-15T03:59:32;94014.00;;;4.40
14023;BMP180;7086;48.116;11.580;2024-01-15T04:01:59;94018.00;;;4.40
14023;BMP180;7086;48.116;11.580;2024-01-15T04:04:27;93996.00;;;4.40
14023;BMP180;7086;48.116;11.580;2024-01-15T04:06:56;93912.00;;;4.40
14023;BMP180;7086;48.116;11.580;2024-01-15T04:09:24;93998.00;;;4.30
14023;BMP180;7086;48.116;11.580;2024-01-15T04:11:52;94004.00;;;4.40
14023;BMP180;7086;48.116;11.580;2024-01-15T04:14:19;94014.00;;;4.40
14023;BMP180;7086;48.116;11.580;2024-01-15T04:16:46;94005.00;;;4.40
14023;BMP180;7086;48.116;11.580;2024-01-15T04:19:14;93881.00;;;4.40
14023;BMP180;7086;48.116;11.580;2024-01-15T04:21:42;94005.00;;;4.30
14023;BMP180;7086;48.116;11.580;2024-01-15T04:24:11;94008.00;;;4.30
14023;BMP180;7086;48.116;11.580;2024-01-15T04:26:39;93985.00;;;4.30
14023;BMP180;7086;48.116;11.580;2024-01-15T04:29:06;93966.00;;;4.30
14023;BMP180;7086;48.116;11.580;2024-01-15T04:31:33;94000.00;;;4.30
14023;BMP180;7086;48.116;11.580;2024-01-15T04:34:02;94002.00;;;4.30
14023;BMP180;7086;48.116;11.580;2024-01-15T04:36:31;93913.00;;;4.30
14023;BMP180;7086;48.116;11.580;2024-01-15T04:38:58;94002.00;;;4.30
14023;BMP180;7086;48.116;11.580;2024-01-15T04:41:27;93894.00;;;4.30
14023;BMP180;7086;48.116;11.580;2024-01-15T04:43:55;93999.00;;;4.30
14023;BMP180;7086;48.116;11.580;2024-01-15T04:46:23;93976.00;;;4.20
14023;BMP180;7086;48.116;11.580;2024-01-15T04:48:51;93998.00;;;4.30
14023;BMP180;7086;48.116;11.580;2024-01-15T04:51:18;93992.00;;;4.30
14023;BMP180;7086;48.116;11.580;2024-01-15T04:53:46;93958.00;;;4.40
14023;BMP180;7086;48.116;11.580;2024-01-15T04:56:13;94023.00;;;4.40
14023;BMP180;7086;48.116;11.580;2024-01-15T04:58:44;93972.00;;;4.40
14023;BMP180;7086;48.116;11.580;2024-01-15T05:01:12;93944.00;;;4.40
14023;BMP180;7086;48.116;11.580;2024-01-15T05:03:40;93933.00;;;4.20
14023;BMP180;7086;48.116;11.580;2024-01-15T05:06:09;93970.00;;;4.40
14023;BMP180;7086;48.116;11.580;2024-01-15T05:08:36;93924.00;;;4.40
14023;BMP180;7086;48.116;11.580;2024-01-15T05:11:04;93994.00;;;4.40
14023;BMP180;7086;48.116;11.580;2024-01-15T05:13:32;93986.00;;;4.40
14023;BMP180;7086;48.116;11.580;2024-01-15T05:16:01;93946.00;;;4.40
14023;BMP180;7086;48.116;11.580;2024-01-15T05:18:29;93993.00;;;4.40
14023;BMP180;7086;48.116;11.580;2024-01-15T05:20:57;94003.00;;;4.40
14023;BMP180;7086;48.116;11.580;2024-01-15T05:23:25;93953.00;;;4.40
14023;BMP180;7086;48.116;11.580;2024-01-15T05:25:52;94027.00;;;4.40
14023;BMP180;7086;48.116;11.580;2024-01-15T05:28:20;94001.00;;;4.40
14023;BMP180;7086;48.116;11.580;2024-01-15T05:30:48;94000.00;;;4.40
14023;BMP180;7086;48.116;11.580;2024-01-15T05:33:18;94039.00;;;4.40
14023;BMP180;7086;48.116;11.580;2024-01-15T05:35:45;93858.00;;;4.50
14023;BMP180;7086;48.116;11.580;2024-01-15T05:38:13;93971.00;;;4.40
14023;BMP180;7086;48.116;11.580;2024-01-15T05:40:41;93991.00;;;4.30
14023;BMP180;7086;48.116;11.580;2024-01-15T05:43:08;94000.00;;;4.40
14023;BMP180;7086;48.116;11.580;2024-01-15T05:45:37;93992.00;;;4.50
14023;BMP180;7086;48.116;11.580;2024-01-15T05:48:05;93964.00;;;4.50
14023;BMP180;7086;48.116;11.580;2024-01-15T05:50:34;93911.00;;;4.40
14023;BMP180;7086;48.116;11.580;2024-01-15T05:53:02;94040.00;;;4.50
14023;BMP180;7086;48.116;11.580;2024-01-15T05:55:30;93934.00;;;4.50
14023;BMP180;7086;48.116;11.580;2024-01-15T05:57:57;93957.00;;;4.50
14023;BMP180;7086;48.116;11.580;2024-01-15T06:00:25;94027.00;;;4.30
14023;BMP180;7086;48.116;11.580;2024-01-15T06:02:53;93970.00;;;4.50
14023;BMP180;7086;48.116;11.580;2024-01-15T06:05:21;93945.00;;;4.50
14023;BMP180;7086;48.116;11.580;2024-01-15T06:07:50;93937.00;;;4.50
14023;BMP180;7086;48.116;11.580;2024-01-15T06:10:17;94014.00;;;4.50
14023;BMP180;7086;48.116;11.580;2024-01-15T06:12:45;94006.00;;;4.50
14023;BMP180;7086;48.116;11.580;2024-01-15T06:15:13;93992.00;;;4.50
14023;BMP180;7086;48.116;11.580;2024-01-15T06:17:41;93999.00;;;4.50
14023;BMP180;7086;48.116;11.580;2024-01-15T06:20:10;93971.00;;;4.50
14023;BMP180;7086;48.116;11.580;2024-01-15T06:22:38;94012.00;;;4.30
14023;BMP180;7086;48.116;11.580;2024-01-15T06:25:08;94006.00;;;4.50
14023;BMP180;7086;48.116;11.580;2024-01-15T06:27:36;93995.00;;;4.50
14023;BMP180;7086;48.116;11.580;2024-01-15T06:30:05;93939.00;;;4.50
14023;BMP180;7086;48.116;11.580;2024-01-15T06:32:33;94012.00;;;4.50
14023;BMP180;7086;48.116;11.580;2024-01-15T06:35:01;93871.00;;;4.50
14023;BMP180;7086;48.116;11.580;2024-01-15T06:37:28;94001.00;;;4.50
14023;BMP180;7086;48.116;11.580;2024-01-15T06:39:56;94003.00;;;4.50
14023;BMP180;7086;48.116;11.580;2024-01-15T06:42:25;94004.00;;;4.50
14023;BMP180;7086;48.116;11.580;2024-01-15T06:44:53;93979.00;;;4.10
14023;BMP180;7086;48.116;11.580;2024-01-15T06:47:21;93995.00;;;4.60
14023;BMP180;7086;48.116;11.580;2024-01-15T06:49:48;93979.00;;;4.60
14023;BMP180;7086;48.116;11.580;2024-01-15T06:52:18;94004.00;;;4.60
14023;BMP180;7086;48.116;11.580;2024-01-15T06:54:46;93989.00;;;4.60
14023;BMP180;7086;48.116;11.580;2024-01-15T06:57:14;94009.00;;;4.60
14023;BMP180;7086;48.116;11.580;2024-01-15T06:59:43;93966.00;;;4.50
14023;BMP180;7086;48.116;11.580;2024-01-15T07:02:11;94004.00;;;4.60
14023;BMP180;7086;48.116;11.580;2024-01-15T07:04:40;94016.00;;;4.60
14023;BMP180;7086;48.116;11.580;2024-01-15T07:07:12;93996.00;;;4.60
14023;BMP180;7086;48.116;11.580;2024-01-15T07:09:40;93828.00;;;4.60
14023;BMP180;7086;48.116;11.580;2024-01-15T07:12:08;94020.00;;;4.60
14023;BMP180;7086;48.116;11.580;2024-01-15T07:14:39;93991.00;;;4.70
14023;BMP180;7086;48.116;11.580;2024-01-15T07:17:08;93948.00;;;4.70
14023;BMP180;7086;48.116;11.580;2024-01-15T07:19:36;93975.00;;;4.70
14023;BMP180;7086;48.116;11.580;2024-01-15T07:22:05;93968.00;;;4.70
14023;BMP180;7086;48.116;11.580;2024-01-15T07:24:32;93990.00;;;4.70
14023;BMP180;7086;48.116;11.580;2024-01-15T07:27:01;93983.00;;;4.70
14023;BMP180;7086;48.116;11.580;2024-01-15T07:29:30;94048.00;;;4.70
14023;BMP180;7086;48.116;11.580;2024-01-15T07:32:00;93995.00;;;4.70
14023;BMP180;7086;48.116;11.580;2024-01-15T07:34:29;93931.00;;;4.70
14023;BMP180;7086;48.116;11.580;2024-01-15T07:36:58;93990.00;;;4.70
14023;BMP180;7086;48.116;11.580;2024-01-15T07:39:26;93982.00;;;4.70
14023;BMP180;7086;48.116;11.580;2024-01-15T07:41:55;93939.00;;;4.70
14023;BMP180;7086;48.116;11.580;2024-01-15T07:44:22;94005.00;;;4.30
14023;BMP180;7086;48.116;11.580;2024-01-15T07:46:50;93988.00;;;4.70
14023;BMP180;7086;48.116;11.580;2024-01-15T07:49:19;93984.00;;;4.70
14023;BMP180;7086;48.116;11.580;2024-01-15T07:51:48;93893.00;;;4.30
14023;BMP180;7086;48.116;11.580;2024-01-15T07:54:16;93984.00;;;4.80
14023;BMP180;7086;48.116;11.580;2024-01-15T07:56:56;94014.00;;;4.80
14023;BMP180;7086;48.116;11.580;2024-01-15T07:59:25;93992.00;;;4.80
14023;BMP180;7086;48.116;11.580;2024-01-15T08:01:53;94037.00;;;4.80
14023;BMP180;7086;48.116;11.580;2024-01-15T08:04:21;93971.00;;;4.80
14023;BMP180;7086;48.116;11.580;2024-01-15T08:06:51;93865.00;;;4.80
14023;BMP180;7086;48.116;11.580;2024-01-15T08:09:19;93969.00;;;4.80
14023;BMP180;7086;48.116;11.580;2024-01-15T08:11:47;93950.00;;;4.70
14023;BMP180;7086;48.116;11.580;2024-01-15T08:14:16;93965.00;;;4.80
14023;BMP180;7086;48.116;11.580;2024-01-15T08:16:44;93867.00;;;4.80
14023;BMP180;7086;48.116;11.580;2024-01-15T08:19:12;93956.00;;;4.80
14023;BMP180;7086;48.116;11.580;2024-01-15T08:21:40;93954.00;;;4.80
14023;BMP180;7086;48.116;11.580;2024-01-15T08:24:10;93979.00;;;4.40
14023;BMP180;7086;48.116;11.580;2024-01-15T08:26:37;93972.00;;;4.90
14023;BMP180;7086;48.116;11.580;2024-01-15T08:29:05;93954.00;;;4.90
14023;BMP180;7086;48.116;11.580;2024-01-15T08:31:33;93958.00;;;4.90
14023;BMP180;7086;48.116;11.580;2024-01-15T08:34:02;93961.00;;;4.60
14023;BMP180;7086;48.116;11.580;2024-01-15T08:36:32;93985.00;;;4.90
14023;BMP180;7086;48.116;11.580;2024-01-15T08:39:02;93961.00;;;4.90
14023;BMP180;7086;48.116;11.580;2024-01-15T08:41:33;93795.00;;;4.90
14023;BMP180;7086;48.116;11.580;2024-01-15T08:44:03;93863.00;;;4.30
14023;BMP180;7086;48.116;11.580;2024-01-15T08:46:32;93964.00;;;4.90
14023;BMP180;7086;48.116;11.580;2024-01-15T08:49:02;93961.00;;;4.90
14023;BMP180;7086;48.116;11.580;2024-01-15T08:51:30;93874.00;;;4.90
14023;BMP180;7086;48.116;11.580;2024-01-15T08:54:02;93792.00;;;4.80
14023;BMP180;7086;48.116;11.580;2024-01-15T08:56:33;94010.00;;;4.80
14023;BMP180;7086;48.116;11.580;2024-01-15T08:59:01;93867.00;;;4.90
14023;BMP180;7086;48.116;11.580;2024-01-15T09:01:29;93957.00;;;5.10
14023;BMP180;7086;48.116;11.580;2024-01-15T09:04:02;93810.00;;;5.10
14023;BMP180;7086;48.116;11.580;2024-01-15T09:06:33;94011.00;;;5.10
14023;BMP180;7086;48.116;11.580;2024-01-15T09:09:05;93816.00;;;5.10
14023;BMP180;7086;48.116;11.580;2024-01-15T09:11:36;93876.00;;;5.00
14023;BMP180;7086;48.116;11.580;2024-01-15T09:14:07;93811.00;;;5.10
14023;BMP180;7086;48.116;11.580;2024-01-15T09:16:40;93966.00;;;5.20
14023;BMP180;7086;48.116;11.580;2024-01-15T09:19:24;93846.00;;;5.20
14023;BMP180;7086;48.116;11.580;2024-01-15T09:21:54;93888.00;;;5.20
14023;BMP180;7086;48.116;11.580;2024-01-15T09:24:25;93970.00;;;5.30
14023;BMP180;7086;48.116;11.580;2024-01-15T09:26:59;93923.00;;;5.20
14023;BMP180;7086;48.116;11.580;2024-01-15T09:29:40;93878.00;;;4.90
14023;BMP180;7086;48.116;11.580;2024-01-15T09:32:26;93901.00;;;5.40
14023;BMP180;7086;48.116;11.580;2024-01-15T09:35:03;93985.00;;;5.40
14023;BMP180;7086;48.116;11.580;2024-01-15T09:37:31;93976.00;;;5.40
14023;BMP180;7086;48.116;11.580;2024-01-15T09:40:15;93840.00;;;5.40
14023;BMP180;7086;48.116;11.580;2024-01-15T09:43:04;93977.00;;;5.50
14023;BMP180;7086;48.116;11.580;2024-01-15T09:45:34;93879.00;;;5.60
14023;BMP180;7086;48.116;11.580;2024-01-15T09:48:10;93860.00;;;5.60
14023;BMP180;7086;48.116;11.580;2024-01-15T09:50:48;93870.00;;;5.70
14023;BMP180;7086;48.116;11.580;2024-01-15T09:53:33;93884.00;;;5.80
14023;BMP180;7086;48.116;11.580;2024-01-15T09:56:11;93978.00;;;5.80
14023;BMP180;7086;48.116;11.580;2024-01-15T09:59:01;94004.00;;;5.90
14023;BMP180;7086;48.116;11.580;2024-01-15T10:01:39;93871.00;;;5.90
14023;BMP180;7086;48.116;11.580;2024-01-15T10:04:22;93942.00;;;5.90
14023;BMP180;7086;48.116;11.580;2024-01-15T10:06:54;93998.00;;;6.00
14023;BMP180;7086;48.116;11.580;2024-01-15T10:09:24;93834.00;;;6.10
14023;BMP180;7086;48.116;11.580;2024-01-15T10:11:53;93965.00;;;6.10
14023;BMP180;7086;48.116;11.580;2024-01-15T10:14:23;93984.00;;;6.00
14023;BMP180;7086;48.116;11.580;2024-01-15T10:16:52;93819.00;;;6.20
14023;BMP180;7086;48.116;11.580;2024-01-15T10:19:27;93969.00;;;6.20
14023;BMP180;7086;48.116;11.580;2024-01-15T10:22:01;93934.00;;;6.20
14023;BMP180;7086;48.116;11.580;2024-01-15T10:24:30;93828.00;;;6.20
14023;BMP180;7086;48.116;11.580;2024-01-15T10:27:06;93859.00;;;6.30
14023;BMP180;7086;48.116;11.580;2024-01-15T10:29:37;93842.00;;;6.30
14023;BMP180;7086;48.116;11.580;2024-01-15T10:32:08;93847.00;;;6.30
14023;BMP180;7086;48.116;11.580;2024-01-15T10:34:42;93816.00;;;6.30
14023;BMP180;7086;48.116;11.580;2024-01-15T10:37:14;93820.00;;;5.80
14023;BMP180;7086;48.116;11.580;2024-01-15T10:39:42;93905.00;;;6.30
14023;BMP180;7086;48.116;11.580;2024-01-15T10:42:13;93898.00;;;6.30
14023;BMP180;7086;48.116;11.580;2024-01-15T10:44:44;93957.00;;;6.30
14023;BMP180;7086;48.116;11.580;2024-01-15T10:47:13;93903.00;;;6.20
14023;BMP180;7086;48.116;11.580;2024-01-15T10:49:42;93856.00;;;6.40
14023;BMP180;7086;48.116;11.580;2024-01-15T10:52:11;93834.00;;;6.30
14023;BMP180;7086;48.116;11.580;2024-01-15T10:54:57;93909.00;;;6.40
14023;BMP180;7086;48.116;11.580;2024-01-15T10:57:28;93773.00;;;6.40
14023;BMP180;7086;48.116;11.580;2024-01-15T11:03:29;93943.00;;;6.50
14023;BMP180;7086;48.116;11.580;2024-01-15T11:05:59;93759.00;;;6.00
14023;BMP180;7086;48.116;11.580;2024-01-15T11:08:52;93895.00;;;6.50
14023;BMP180;7086;48.116;11.580;2024-01-15T11:11:22;93882.00;;;6.60
14023;BMP180;7086;48.116;11.580;2024-01-15T11:13:52;93893.00;;;6.70
14023;BMP180;7086;48.116;11.580;2024-01-15T11:16:21;93904.00;;;6.80
14023;BMP180;7086;48.116;11.580;2024-01-15T11:19:12;93812.00;;;6.80
14023;BMP180;7086;48.116;11.580;2024-01-15T11:21:47;93818.00;;;6.40
14023;BMP180;7086;48.116;11.580;2024-01-15T11:24:36;93797.00;;;7.00
14023;BMP180;7086;48.116;11.580;2024-01-15T11:27:13;93812.00;;;7.00
14023;BMP180;7086;48.116;11.580;2024-01-15T11:30:04;93829.00;;;7.00
14023;BMP180;7086;48.116;11.580;2024-01-15T11:32:38;93814.00;;;7.10
14023;BMP180;7086;48.116;11.580;2024-01-15T11:35:12;93855.00;;;7.10
14023;BMP180;7086;48.116;11.580;2024-01-15T11:37:59;93887.00;;;7.20
14023;BMP180;7086;48.116;11.580;2024-01-15T11:40:40;93922.00;;;7.30
14023;BMP180;7086;48.116;11.580;2024-01-15T11:43:18;93749.00;;;7.30
14023;BMP180;7086;48.116;11.580;2024-01-15T11:45:54;93790.00;;;7.30
14023;BMP180;7086;48.116;11.580;2024-01-15T11:48:42;93894.00;;;7.40
14023;BMP180;7086;48.116;11.580;2024-01-15T11:51:18;93891.00;;;7.30
14023;BMP180;7086;48.116;11.580;2024-01-15T11:53:52;93870.00;;;7.30
14023;BMP180;7086;48.116;11.580;2024-01-15T11:56:23;93777.00;;;7.20
14023;BMP180;7086;48.116;11.580;2024-01-15T11:59:05;93876.00;;;7.00
14023;BMP180;7086;48.116;11.580;2024-01-15T12:01:48;93750.00;;;6.90
14023;BMP180;7086;48.116;11.580;2024-01-15T12:10:41;93791.00;;;6.80
14023;BMP180;7086;48.116;11.580;2024-01-15T12:13:25;93752.00;;;6.40
14023;BMP180;7086;48.116;11.580;2024-01-15T12:15:58;93855.00;;;6.80
14023;BMP180;7086;48.116;11.580;2024-01-15T12:18:31;93885.00;;;6.70
14023;BMP180;7086;48.116;11.580;2024-01-15T12:21:01;93848.00;;;6.70
14023;BMP180;7086;48.116;11.580;2024-01-15T12:24:03;93728.00;;;6.70
14023;BMP180;7086;48.116;11.580;2024-01-15T12:26:40;93831.00;;;6.70
14023;BMP180;7086;48.116;11.580;2024-01-15T12:29:09;93812.00;;;6.70
14023;BMP180;7086;48.116;11.580;2024-01-15T12:31:38;93815.00;;;6.70
14023;BMP180;7086;48.116;11.580;2024-01-15T12:34:43;93656.00;;;6.60
14023;BMP180;7086;48.116;11.580;2024-01-15T12:37:12;93650.00;;;6.60
14023;BMP180;7086;48.116;11.580;2024-01-15T12:39:45;93820.00;;;6.50
14023;BMP180;7086;48.116;11.580;2024-01-15T12:42:39;93705.00;;;6.50
14023;BMP180;7086;48.116;11.580;2024-01-15T12:48:01;93675.00;;;6.50
14023;BMP180;7086;48.116;11.580;2024-01-15T12:50:34;93768.00;;;6.50
14023;BMP180;7086;48.116;11.580;2024-01-15T12:53:04;93845.00;;;6.50
14023;BMP180;7086;48.116;11.580;2024-01-15T12:55:43;93814.00;;;6.40
14023;BMP180;7086;48.116;11.580;2024-01-15T12:58:13;93677.00;;;6.50
14023;BMP180;7086;48.116;11.580;2024-01-15T13:00:59;93748.00;;;6.60
14023;BMP180;7086;48.116;11.580;2024-01-15T13:03:37;93804.00;;;6.70
14023;BMP180;7086;48.116;11.580;2024-01-15T13:06:06;93729.00;;;6.80
14023;BMP180;7086;48.116;11.580;2024-01-15T13:08:36;93694.00;;;6.90
14023;BMP180;7086;48.116;11.580;2024-01-15T13:11:15;93808.00;;;7.10
14023;BMP180;7086;48.116;11.580;2024-01-15T13:13:46;93740.00;;;7.00
14023;BMP180;7086;48.116;11.580;2024-01-15T13:16:18;93680.00;;;7.20
14023;BMP180;7086;48.116;11.580;2024-01-15T13:18:48;93817.00;;;7.50
14023;BMP180;7086;48.116;11.580;2024-01-15T13:21:18;93808.00;;;7.60
14023;BMP180;7086;48.116;11.580;2024-01-15T13:23:48;93717.00;;;7.70
14023;BMP180;7086;48.116;11.580;2024-01-15T13:45:09;93799.00;;;7.80
14023;BMP180;7086;48.116;11.580;2024-01-15T13:47:43;93847.00;;;7.40
14023;BMP180;7086;48.116;11.580;2024-01-15T13:50:25;93755.00;;;7.70
14023;BMP180;7086;48.116;11.580;2024-01-15T13:52:54;93830.00;;;7.70
14023;BMP180;7086;48.116;11.580;2024-01-15T13:55:25;93757.00;;;7.70
14023;BMP180;7086;48.116;11.580;2024-01-15T13:57:55;93829.00;;;7.70
14023;BMP180;7086;48.116;11.580;2024-01-15T14:00:35;93737.00;;;7.60
14023;BMP180;7086;48.116;11.580;2024-01-15T14:03:04;93785.00;;;7.70
14023;BMP180;7086;48.116;11.580;2024-01-15T14:05:36;93740.00;;;7.70
14023;BMP180;7086;48.116;11.580;2024-01-15T14:08:07;93688.00;;;7.60
14023;BMP180;7086;48.116;11.580;2024-01-15T14:10:40;93844.00;;;7.50
14023;BMP180;7086;48.116;11.580;2024-01-15T14:13:19;93757.00;;;7.60
14023;BMP180;7086;48.116;11.580;2024-01-15T14:16:10;93735.00;;;7.50
14023;BMP180;7086;48.116;11.580;2024-01-15T14:18:39;93739.00;;;7.50
14023;BMP180;7086;48.116;11.580;2024-01-15T14:21:10;93736.00;;;7.50
14023;BMP180;7086;48.116;11.580;2024-01-15T14:23:37;93791.00;;;7.40
14023;BMP180;7086;48.116;11.580;2024-01-15T14:26:06;93877.00;;;7.40
14023;BMP180;7086;48.116;11.580;2024-01-15T14:28:34;93834.00;;;7.30
14023;BMP180;7086;48.116;11.580;2024-01-15T14:34:25;93792.00;;;7.10
14023;BMP180;7086;48.116;11.580;2024-01-15T14:37:01;93860.00;;;6.60
14023;BMP180;7086;48.116;11.580;2024-01-15T14:39:33;93766.00;;;7.00
14023;BMP180;7086;48.116;11.580;2024-01-15T14:42:02;93875.00;;;6.90
14023;BMP180;7086;48.116;11.580;2024-01-15T14:44:32;93846.00;;;6.70
14023;BMP180;7086;48.116;11.580;2024-01-15T14:47:05;93772.00;;;6.50
14023;BMP180;7086;48.116;11.580;2024-01-15T14:49:58;93829.00;;;6.60
14023;BMP180;7086;48.116;11.580;2024-01-15T14:52:39;93906.00;;;6.60
14023;BMP180;7086;48.116;11.580;2024-01-15T14:55:13;93884.00;;;6.10
14023;BMP180;7086;48.116;11.580;2024-01-15T14:57:43;93868.00;;;6.40
14023;BMP180;7086;48.116;11.580;2024-01-15T15:00:12;93878.00;;;6.40
14023;BMP180;7086;48.116;11.580;2024-01-15T15:02:46;93863.00;;;5.80
14023;BMP180;7086;48.116;11.580;2024-01-15T15:05:17;93779.00;;;6.30
14023;BMP180;7086;48.116;11.580;2024-01-15T15:07:47;93805.00;;;6.30
14023;BMP180;7086;48.116;11.580;2024-01-15T15:10:30;93872.00;;;6.20
14023;BMP180;7086;48.116;11.580;2024-01-15T15:13:00;93774.00;;;6.10
14023;BMP180;7086;48.116;11.580;2024-01-15T15:15:28;93871.00;;;6.20
14023;BMP180;7086;48.116;11.580;2024-01-15T15:17:56;93885.00;;;6.20